• Join FlightAware (Why Join?)
  • Login
  • US Flag 
12:34PM EDT


 

Airport Tracker/Info


-or-


 

Live Flight TrackerFlight Track Log ✈ N54381 ✈ 08-Jun-2014 ✈ KMIA - KOBE

Flight Track Log - Related Links

Times and Time Zones

All times are in EDT time to prevent confusion due to time zone crossing. See the N54381 flight status page for this flight to view local times or setup timezone preferences in your user account.

Time Position Orientation Groundspeed Altitude Reporting Facility
EDT Latitude Longitude Course Direction KTS MPH feet Rate Location/Type
02:03PM 26.5092 -80.9417 339° North 106 122 3,600  Level Miami Center
02:04PM 26.5372 -80.9508 344° North 108 124 3,600 -60 Level Miami Center
02:05PM 26.5675 -80.9650 337° Northwest 113 130 3,500 -60 Descending Miami Center
02:06PM 26.6008 -80.9736 347° North 114 131 3,500 -60 Level Miami Center
02:07PM 26.6325 -80.9717 North 111 128 3,400 -60 Descending Miami Center
02:08PM 25.9549 -80.3402 339° North  Level FlightAware Approximate
02:08PM 26.6608 -80.9603 20° North 105 121 3,400  Level Miami Center
02:09PM 26.6906 -80.9486 19° North 105 121 3,500  Climbing Miami Center
02:10PM 26.7211 -80.9358 20° North 110 127 3,500  Level Miami Center
02:11PM 26.7494 -80.9219 24° Northeast 113 130 3,500  Level Miami Center
02:12PM 26.7817 -80.9139 13° North 113 130 3,500 -60 Level Miami Center
02:13PM 26.8147 -80.9064 11° North 114 131 3,400  Descending Miami Center
02:14PM 26.8456 -80.8986 13° North 111 128 3,500  Climbing Miami Center
02:15PM 26.8778 -80.8958 North 110 127 3,500  Level Miami Center
02:16PM 26.9100 -80.8961 360° North 110 127 3,600  Climbing Miami Center
02:17PM 26.9425 -80.8947 North 111 128 3,500 -60 Descending Miami Center
02:19PM 26.9719 -80.8894 North 110 127 3,500  Level Miami Center
02:20PM 27.0039 -80.8817 12° North 111 128 3,500  Level Miami Center
02:21PM 27.0358 -80.8786 North 111 128 3,600  Climbing Miami Center
02:22PM 27.0669 -80.8750 North 109 125 3,500 -60 Descending Miami Center
02:23PM 27.0992 -80.8703 North 109 125 3,500  Level Miami Center
02:24PM 27.1308 -80.8681 North 109 125 3,500  Level Miami Center
02:25PM 27.1617 -80.8650 North 108 124 3,500  Level Miami Center